• vieta
  • image
  • image
  • image
mod_vvisit_countermod_vvisit_countermod_vvisit_countermod_vvisit_countermod_vvisit_countermod_vvisit_counter
mod_vvisit_counterŠiandien435
mod_vvisit_counterVakar534
mod_vvisit_counterŠią savaitę969
mod_vvisit_counterPraėjusią savaitę5522
mod_vvisit_counterŠį mėnesį11454
mod_vvisit_counterPraėjusį mėnesį23031
mod_vvisit_counterViso997411

Mes turime: 17 svečius, 1 bots online
Jūsų IP: 54.161.116.225
 , 
Šiandien: Spa 16, 2018
Oro uostas / Naujienos / 2013 Spalis

2013 Spalis

Šiaulių miesto savivaldybė bei SĮ Šiaulių oro uostas kartu su Šiaulių oro uoste veiklą vykdančiomis įmonėmis UAB „Rikusta“ (krovinių sandėliavimas), UAB „Bages“ (orlaivių aptarnavimo technika) bei užsakomųjų skrydžių organizavimo bendrove „Flight Consulting Group Ltd.“ (Latvija) dalyvaus šiemet Stambule (Turkija) lapkričio 21-23 d. vyksiančioje transporto ir logistikos parodoje „Logitrans 2013“.

Tarptautinė transporto ir logistikos paroda „Logitrans 2013“ Turkijoje organizuojama jau septintą kartą. Šiais metais pirmą kartą čia bus pristatytas „Air Cargo“ paviljonas, skirtas išimtinai krovinių gabenimo oro transportu pramonei bei logistikai, kuriame Šiaulių m. savivaldybė bei SĮ Šiaulių oro uosto atstovai su partneriais bendru stendu pristatys savo paslaugas. Šiaulių m. savivaldybė, siekdama pritraukti investicijas į Šiaulius bei  užtikrinti Šiaulių miesto ir  pramoninio parko žinomumą ir matomumą, pristatinės Šiaulių pramoninį parką bei jo verslo sąlygas, Šiaulių miesto investicijų aplinką ir jos galimybes. SĮ Šiaulių oro uostas, kaip Šiaulių m. savivaldybės vykdomo „Šiaulių pramoninio parko rinkodaros projekto „Investuok Šiauliuose” sudėtinė dalis, savo ruožtu skleis informaciją apie civilinį Šiaulių oro uostą, jame teikiamas paslaugas bei krovinių gabenimo per oro uostą galimybes.

Be daugelio Turkijos logistikos įmonių parodoje dalyvaus ir Vokietijos, Italijos, Šveicarijos, Latvijos, Austrijos ir kt. šalių logistikos bendrovės.

Maloniai kviečiame Jus apsilankyti mūsų stende Nr. 228 „Air Cargo“ paviljone. Iki pasimatymo parodoje!

Šiandien

Antradienis, 16 Spalis 2018

Orų prognozė aviacijai

[source: ADDS]
METAR
EYSA 161350Z 20007KT CAVOK 18/06 Q1022 BLU NOSIG =
TAF EYSA 161404Z 1615/1624 19008KT CAVOK
TAF
TAF EYSA 161404Z 1615/1624 19008KT CAVOK =
SR / SS: 05:00 / 15:26 UTC (EYSA 2018-10-16)

Paieška

Lankytojai

Mes turime 18 svečius online

tic logo lt